sensor_id;sensor_type;location;lat;lon;timestamp;pressure;altitude;pressure_sealevel;temperature;humidity
34696;BME280;20918;51.138;17.370;2022-11-04T00:01:18;99427.66;;;9.11;72.25
34696;BME280;20918;51.138;17.370;2022-11-04T00:04:22;99432.14;;;9.11;72.26
34696;BME280;20918;51.138;17.370;2022-11-04T00:07:24;99422.88;;;9.11;72.31
34696;BME280;20918;51.138;17.370;2022-11-04T00:10:44;99424.52;;;9.12;72.42
34696;BME280;20918;51.138;17.370;2022-11-04T00:14:05;99425.67;;;9.13;72.41
34696;BME280;20918;51.138;17.370;2022-11-04T00:17:10;99425.88;;;9.08;72.36
34696;BME280;20918;51.138;17.370;2022-11-04T00:20:22;99423.73;;;9.03;72.52
34696;BME280;20918;51.138;17.370;2022-11-04T00:23:41;99424.43;;;9.01;72.71
34696;BME280;20918;51.138;17.370;2022-11-04T00:27:01;99420.11;;;9.04;72.81
34696;BME280;20918;51.138;17.370;2022-11-04T00:30:20;99420.27;;;9.07;72.82
34696;BME280;20918;51.138;17.370;2022-11-04T00:33:21;99408.67;;;9.08;72.86
34696;BME280;20918;51.138;17.370;2022-11-04T00:36:25;99406.02;;;9.08;72.96
34696;BME280;20918;51.138;17.370;2022-11-04T00:39:26;99410.30;;;9.09;72.99
34696;BME280;20918;51.138;17.370;2022-11-04T00:42:27;99409.33;;;9.10;73.09
34696;BME280;20918;51.138;17.370;2022-11-04T00:45:28;99409.64;;;9.11;73.06
34696;BME280;20918;51.138;17.370;2022-11-04T00:48:29;99405.67;;;9.11;73.24
34696;BME280;20918;51.138;17.370;2022-11-04T00:51:30;99398.34;;;9.17;73.54
34696;BME280;20918;51.138;17.370;2022-11-04T00:54:31;99392.89;;;9.18;73.64
34696;BME280;20918;51.138;17.370;2022-11-04T00:57:32;99389.39;;;9.22;73.63
34696;BME280;20918;51.138;17.370;2022-11-04T01:00:33;99379.11;;;9.23;74.21
34696;BME280;20918;51.138;17.370;2022-11-04T01:03:33;99383.43;;;9.24;74.04
34696;BME280;20918;51.138;17.370;2022-11-04T01:06:34;99382.73;;;9.26;74.22
34696;BME280;20918;51.138;17.370;2022-11-04T01:09:35;99369.18;;;9.25;74.08
34696;BME280;20918;51.138;17.370;2022-11-04T01:12:36;99355.63;;;9.24;73.91
34696;BME280;20918;51.138;17.370;2022-11-04T01:15:37;99351.01;;;9.22;73.90
34696;BME280;20918;51.138;17.370;2022-11-04T01:18:39;99333.50;;;9.17;73.79
34696;BME280;20918;51.138;17.370;2022-11-04T01:21:40;99327.75;;;9.13;74.00
34696;BME280;20918;51.138;17.370;2022-11-04T01:24:41;99332.38;;;9.11;73.98
34696;BME280;20918;51.138;17.370;2022-11-04T01:27:42;99330.24;;;9.11;74.14
34696;BME280;20918;51.138;17.370;2022-11-04T01:30:43;99330.59;;;9.08;74.11
34696;BME280;20918;51.138;17.370;2022-11-04T01:33:44;99332.73;;;9.08;74.16
34696;BME280;20918;51.138;17.370;2022-11-04T01:36:45;99324.64;;;9.10;74.17
34696;BME280;20918;51.138;17.370;2022-11-04T01:39:46;99319.36;;;9.06;74.27
34696;BME280;20918;51.138;17.370;2022-11-04T01:42:47;99319.86;;;9.05;74.37
34696;BME280;20918;51.138;17.370;2022-11-04T01:48:58;99316.20;;;9.06;74.73
34696;BME280;20918;51.138;17.370;2022-11-04T01:52:06;99308.27;;;9.06;75.38
34696;BME280;20918;51.138;17.370;2022-11-04T01:55:16;99314.88;;;9.06;74.90
34696;BME280;20918;51.138;17.370;2022-11-04T01:58:21;99311.42;;;9.06;74.82
34696;BME280;20918;51.138;17.370;2022-11-04T02:01:25;99296.55;;;9.05;74.97
34696;BME280;20918;51.138;17.370;2022-11-04T02:04:26;99298.86;;;9.04;74.82
34696;BME280;20918;51.138;17.370;2022-11-04T02:07:27;99292.59;;;9.01;74.81
34696;BME280;20918;51.138;17.370;2022-11-04T02:10:30;99295.94;;;8.98;74.86
34696;BME280;20918;51.138;17.370;2022-11-04T02:13:33;99284.86;;;8.95;75.01
34696;BME280;20918;51.138;17.370;2022-11-04T02:16:46;99283.90;;;8.92;75.02
34696;BME280;20918;51.138;17.370;2022-11-04T02:31:06;99279.30;;;8.90;75.48
34696;BME280;20918;51.138;17.370;2022-11-04T02:44:40;99279.05;;;8.77;75.65
34696;BME280;20918;51.138;17.370;2022-11-04T02:47:52;99279.72;;;8.74;75.75
34696;BME280;20918;51.138;17.370;2022-11-04T02:51:04;99275.95;;;8.73;75.84
34696;BME280;20918;51.138;17.370;2022-11-04T02:54:32;99269.14;;;8.74;76.24
34696;BME280;20918;51.138;17.370;2022-11-04T02:57:42;99267.00;;;8.74;75.96
34696;BME280;20918;51.138;17.370;2022-11-04T03:00:45;99264.36;;;8.74;76.24
34696;BME280;20918;51.138;17.370;2022-11-04T03:03:50;99255.76;;;8.76;76.08
34696;BME280;20918;51.138;17.370;2022-11-04T03:06:55;99260.70;;;8.75;76.08
34696;BME280;20918;51.138;17.370;2022-11-04T03:10:00;99254.44;;;8.76;76.27
34696;BME280;20918;51.138;17.370;2022-11-04T03:13:10;99265.02;;;8.76;76.32
34696;BME280;20918;51.138;17.370;2022-11-04T03:16:14;99257.23;;;8.74;76.16
34696;BME280;20918;51.138;17.370;2022-11-04T03:19:39;99256.42;;;8.74;76.37
34696;BME280;20918;51.138;17.370;2022-11-04T03:22:44;99267.67;;;8.72;76.56
34696;BME280;20918;51.138;17.370;2022-11-04T03:25:47;99259.27;;;8.68;76.30
34696;BME280;20918;51.138;17.370;2022-11-04T03:29:15;99257.64;;;8.63;76.28
34696;BME280;20918;51.138;17.370;2022-11-04T03:35:26;99252.59;;;8.53;76.35
34696;BME280;20918;51.138;17.370;2022-11-04T03:38:28;99251.28;;;8.49;76.47
34696;BME280;20918;51.138;17.370;2022-11-04T03:41:51;99252.45;;;8.47;76.69
34696;BME280;20918;51.138;17.370;2022-11-04T03:44:53;99262.20;;;8.50;76.72
34696;BME280;20918;51.138;17.370;2022-11-04T03:47:55;99260.84;;;8.55;76.85
34696;BME280;20918;51.138;17.370;2022-11-04T03:50:58;99245.94;;;8.58;76.96
34696;BME280;20918;51.138;17.370;2022-11-04T03:53:59;99241.63;;;8.61;77.16
34696;BME280;20918;51.138;17.370;2022-11-04T04:00:43;99242.69;;;8.74;77.44
34696;BME280;20918;51.138;17.370;2022-11-04T04:03:57;99236.19;;;8.81;77.43
34696;BME280;20918;51.138;17.370;2022-11-04T04:07:07;99228.39;;;8.88;77.38
34696;BME280;20918;51.138;17.370;2022-11-04T04:10:20;99235.30;;;8.93;77.29
34696;BME280;20918;51.138;17.370;2022-11-04T04:13:44;99230.27;;;8.98;77.36
34696;BME280;20918;51.138;17.370;2022-11-04T04:16:50;99232.70;;;9.04;77.31
34696;BME280;20918;51.138;17.370;2022-11-04T04:20:05;99226.72;;;9.10;77.55
34696;BME280;20918;51.138;17.370;2022-11-04T04:23:12;99229.10;;;9.19;77.74
34696;BME280;20918;51.138;17.370;2022-11-04T04:26:34;99233.17;;;9.26;77.44
34696;BME280;20918;51.138;17.370;2022-11-04T04:29:57;99239.09;;;9.32;77.44
34696;BME280;20918;51.138;17.370;2022-11-04T04:33:12;99223.66;;;9.36;77.42
34696;BME280;20918;51.138;17.370;2022-11-04T04:36:17;99222.63;;;9.41;77.36
34696;BME280;20918;51.138;17.370;2022-11-04T04:39:21;99217.78;;;9.45;77.35
34696;BME280;20918;51.138;17.370;2022-11-04T04:42:43;99217.41;;;9.48;77.30
34696;BME280;20918;51.138;17.370;2022-11-04T04:46:02;99210.77;;;9.52;77.43
34696;BME280;20918;51.138;17.370;2022-11-04T04:49:06;99205.72;;;9.57;77.43
34696;BME280;20918;51.138;17.370;2022-11-04T04:52:08;99196.42;;;9.61;77.38
34696;BME280;20918;51.138;17.370;2022-11-04T04:55:10;99196.36;;;9.65;77.31
34696;BME280;20918;51.138;17.370;2022-11-04T04:58:12;99198.27;;;9.71;77.22
34696;BME280;20918;51.138;17.370;2022-11-04T05:01:13;99193.11;;;9.74;77.27
34696;BME280;20918;51.138;17.370;2022-11-04T05:04:14;99187.95;;;9.76;77.19
34696;BME280;20918;51.138;17.370;2022-11-04T05:07:15;99185.95;;;9.78;77.39
34696;BME280;20918;51.138;17.370;2022-11-04T05:10:17;99183.74;;;9.82;77.16
34696;BME280;20918;51.138;17.370;2022-11-04T05:13:18;99189.19;;;9.84;77.16
34696;BME280;20918;51.138;17.370;2022-11-04T05:16:23;99189.02;;;9.86;77.21
34696;BME280;20918;51.138;17.370;2022-11-04T05:19:24;99189.14;;;9.88;77.14
34696;BME280;20918;51.138;17.370;2022-11-04T05:22:25;99180.18;;;9.90;77.08
34696;BME280;20918;51.138;17.370;2022-11-04T05:25:26;99181.64;;;9.92;77.17
34696;BME280;20918;51.138;17.370;2022-11-04T05:28:27;99178.45;;;9.97;77.00
34696;BME280;20918;51.138;17.370;2022-11-04T05:31:28;99176.61;;;9.97;76.93
34696;BME280;20918;51.138;17.370;2022-11-04T05:34:29;99172.77;;;10.00;76.83
34696;BME280;20918;51.138;17.370;2022-11-04T05:37:30;99178.20;;;10.02;76.80
34696;BME280;20918;51.138;17.370;2022-11-04T05:40:31;99171.08;;;10.03;76.71
34696;BME280;20918;51.138;17.370;2022-11-04T05:43:32;99169.38;;;10.06;76.68
34696;BME280;20918;51.138;17.370;2022-11-04T05:46:34;99172.02;;;10.06;76.62
34696;BME280;20918;51.138;17.370;2022-11-04T05:49:35;99172.66;;;10.08;76.70
34696;BME280;20918;51.138;17.370;2022-11-04T05:52:36;99165.66;;;10.11;76.51
34696;BME280;20918;51.138;17.370;2022-11-04T05:55:37;99160.16;;;10.13;76.46
34696;BME280;20918;51.138;17.370;2022-11-04T05:58:38;99154.69;;;10.14;76.36
34696;BME280;20918;51.138;17.370;2022-11-04T06:01:40;99156.63;;;10.16;76.32
34696;BME280;20918;51.138;17.370;2022-11-04T06:04:43;99148.36;;;10.15;76.23
34696;BME280;20918;51.138;17.370;2022-11-04T06:07:45;99151.02;;;10.15;76.15
34696;BME280;20918;51.138;17.370;2022-11-04T06:10:46;99153.36;;;10.14;76.11
34696;BME280;20918;51.138;17.370;2022-11-04T06:13:47;99149.89;;;10.14;76.01
34696;BME280;20918;51.138;17.370;2022-11-04T06:16:48;99148.74;;;10.12;75.95
34696;BME280;20918;51.138;17.370;2022-11-04T06:19:49;99157.07;;;10.09;75.86
34696;BME280;20918;51.138;17.370;2022-11-04T06:22:50;99162.87;;;10.08;75.83
34696;BME280;20918;51.138;17.370;2022-11-04T06:25:52;99156.77;;;10.08;75.93
34696;BME280;20918;51.138;17.370;2022-11-04T06:28:53;99171.20;;;10.05;75.76
34696;BME280;20918;51.138;17.370;2022-11-04T06:31:54;99174.41;;;10.01;75.74
34696;BME280;20918;51.138;17.370;2022-11-04T06:34:55;99172.64;;;9.97;75.87
34696;BME280;20918;51.138;17.370;2022-11-04T06:37:56;99172.81;;;9.96;75.78
34696;BME280;20918;51.138;17.370;2022-11-04T06:40:57;99169.41;;;9.91;75.84
34696;BME280;20918;51.138;17.370;2022-11-04T06:43:58;99178.34;;;9.90;75.82
34696;BME280;20918;51.138;17.370;2022-11-04T06:47:00;99174.23;;;9.87;75.84
34696;BME280;20918;51.138;17.370;2022-11-04T06:50:01;99180.86;;;9.87;76.03
34696;BME280;20918;51.138;17.370;2022-11-04T06:53:02;99174.61;;;9.84;75.92
34696;BME280;20918;51.138;17.370;2022-11-04T06:56:03;99176.27;;;9.85;76.02
34696;BME280;20918;51.138;17.370;2022-11-04T06:59:06;99173.25;;;9.88;76.03
34696;BME280;20918;51.138;17.370;2022-11-04T07:02:10;99158.61;;;9.93;76.17
34696;BME280;20918;51.138;17.370;2022-11-04T07:05:12;99158.06;;;9.97;76.02
34696;BME280;20918;51.138;17.370;2022-11-04T07:08:14;99167.03;;;10.07;75.97
34696;BME280;20918;51.138;17.370;2022-11-04T07:11:16;99172.53;;;10.16;75.87
34696;BME280;20918;51.138;17.370;2022-11-04T07:14:19;99164.67;;;10.23;75.74
34696;BME280;20918;51.138;17.370;2022-11-04T07:17:20;99162.11;;;10.29;75.67
34696;BME280;20918;51.138;17.370;2022-11-04T07:20:21;99171.27;;;10.38;75.65
34696;BME280;20918;51.138;17.370;2022-11-04T07:23:22;99159.47;;;10.40;75.57
34696;BME280;20918;51.138;17.370;2022-11-04T07:26:23;99159.47;;;10.40;75.57
34696;BME280;20918;51.138;17.370;2022-11-04T07:29:24;99170.57;;;10.61;75.41
34696;BME280;20918;51.138;17.370;2022-11-04T07:32:25;99176.09;;;10.70;75.26
34696;BME280;20918;51.138;17.370;2022-11-04T07:35:26;99139.45;;;10.59;75.33
34696;BME280;20918;51.138;17.370;2022-11-04T07:38:27;99174.11;;;10.90;75.21
34696;BME280;20918;51.138;17.370;2022-11-04T07:41:28;99165.63;;;11.01;74.95
34696;BME280;20918;51.138;17.370;2022-11-04T07:44:29;99167.23;;;11.13;75.04
34696;BME280;20918;51.138;17.370;2022-11-04T07:47:30;99164.62;;;11.19;74.73
34696;BME280;20918;51.138;17.370;2022-11-04T07:50:31;99175.78;;;11.26;74.79
34696;BME280;20918;51.138;17.370;2022-11-04T07:53:32;99174.40;;;11.30;74.72
34696;BME280;20918;51.138;17.370;2022-11-04T07:56:34;99171.66;;;11.34;74.66
34696;BME280;20918;51.138;17.370;2022-11-04T07:59:35;99178.41;;;11.36;74.69
34696;BME280;20918;51.138;17.370;2022-11-04T08:02:38;99183.03;;;11.38;74.68
34696;BME280;20918;51.138;17.370;2022-11-04T08:05:39;99184.66;;;11.39;74.71
34696;BME280;20918;51.138;17.370;2022-11-04T08:08:41;99190.09;;;11.42;74.75
34696;BME280;20918;51.138;17.370;2022-11-04T08:11:45;99182.25;;;11.44;74.68
34696;BME280;20918;51.138;17.370;2022-11-04T08:14:46;99181.05;;;11.47;74.75
34696;BME280;20918;51.138;17.370;2022-11-04T08:17:47;99181.67;;;11.49;74.69
34696;BME280;20918;51.138;17.370;2022-11-04T08:20:49;99183.30;;;11.50;74.75
34696;BME280;20918;51.138;17.370;2022-11-04T08:23:51;99183.61;;;11.51;74.75
34696;BME280;20918;51.138;17.370;2022-11-04T08:26:53;99180.95;;;11.51;74.76
34696;BME280;20918;51.138;17.370;2022-11-04T08:29:54;99178.30;;;11.51;74.74
34696;BME280;20918;51.138;17.370;2022-11-04T08:32:55;99178.92;;;11.53;74.80
34696;BME280;20918;51.138;17.370;2022-11-04T08:35:59;99176.39;;;11.56;74.85
34696;BME280;20918;51.138;17.370;2022-11-04T08:39:04;99171.20;;;11.58;74.84
34696;BME280;20918;51.138;17.370;2022-11-04T08:42:07;99169.47;;;11.61;74.79
34696;BME280;20918;51.138;17.370;2022-11-04T08:45:09;99167.45;;;11.63;74.76
34696;BME280;20918;51.138;17.370;2022-11-04T08:48:11;99166.35;;;11.69;74.81
34696;BME280;20918;51.138;17.370;2022-11-04T08:51:17;99169.73;;;11.73;74.79
34696;BME280;20918;51.138;17.370;2022-11-04T08:54:19;99171.17;;;11.76;74.75
34696;BME280;20918;51.138;17.370;2022-11-04T08:57:21;99167.00;;;11.77;74.72
34696;BME280;20918;51.138;17.370;2022-11-04T09:00:22;99155.23;;;11.76;74.63
34696;BME280;20918;51.138;17.370;2022-11-04T09:03:23;99149.61;;;11.75;74.62
34696;BME280;20918;51.138;17.370;2022-11-04T09:06:27;99153.27;;;11.74;74.62
34696;BME280;20918;51.138;17.370;2022-11-04T09:09:30;99143.67;;;11.73;74.71
34696;BME280;20918;51.138;17.370;2022-11-04T09:12:32;99138.98;;;11.75;74.77
34696;BME280;20918;51.138;17.370;2022-11-04T09:15:33;99145.23;;;11.78;74.77
34696;BME280;20918;51.138;17.370;2022-11-04T09:18:34;99148.93;;;11.83;74.70
34696;BME280;20918;51.138;17.370;2022-11-04T09:21:35;99139.63;;;11.83;74.73
34696;BME280;20918;51.138;17.370;2022-11-04T09:24:37;99140.48;;;11.91;74.87
34696;BME280;20918;51.138;17.370;2022-11-04T09:27:38;99141.23;;;11.95;74.70
34696;BME280;20918;51.138;17.370;2022-11-04T09:30:39;99141.86;;;11.97;74.71
34696;BME280;20918;51.138;17.370;2022-11-04T09:33:40;99140.02;;;11.98;74.57
34696;BME280;20918;51.138;17.370;2022-11-04T09:36:42;99127.84;;;11.99;74.57
34696;BME280;20918;51.138;17.370;2022-11-04T09:39:44;99126.63;;;12.02;74.63
34696;BME280;20918;51.138;17.370;2022-11-04T09:43:13;99123.78;;;12.03;74.53
34696;BME280;20918;51.138;17.370;2022-11-04T09:46:22;99123.08;;;12.05;74.61
34696;BME280;20918;51.138;17.370;2022-11-04T09:49:29;99117.95;;;12.10;74.58
34696;BME280;20918;51.138;17.370;2022-11-04T09:52:41;99121.86;;;12.15;74.50
34696;BME280;20918;51.138;17.370;2022-11-04T09:55:53;99121.68;;;12.23;74.50
34696;BME280;20918;51.138;17.370;2022-11-04T09:58:58;99117.28;;;12.32;74.54
34696;BME280;20918;51.138;17.370;2022-11-04T10:05:35;99122.33;;;12.51;74.34
34696;BME280;20918;51.138;17.370;2022-11-04T10:08:57;99115.19;;;12.59;74.35
34696;BME280;20918;51.138;17.370;2022-11-04T10:18:48;99103.58;;;13.51;73.52
34696;BME280;20918;51.138;17.370;2022-11-04T10:22:19;99100.40;;;13.81;72.99
34696;BME280;20918;51.138;17.370;2022-11-04T10:25:27;99096.44;;;13.97;72.31
34696;BME280;20918;51.138;17.370;2022-11-04T10:28:38;99092.48;;;14.06;71.89
34696;BME280;20918;51.138;17.370;2022-11-04T10:31:44;99086.64;;;14.22;71.96
34696;BME280;20918;51.138;17.370;2022-11-04T10:34:52;99079.56;;;14.34;71.12
34696;BME280;20918;51.138;17.370;2022-11-04T10:38:04;99082.84;;;14.37;70.97
34696;BME280;20918;51.138;17.370;2022-11-04T10:44:33;99081.59;;;14.39;70.61
34696;BME280;20918;51.138;17.370;2022-11-04T10:47:39;99072.11;;;14.27;70.29
34696;BME280;20918;51.138;17.370;2022-11-04T10:50:57;99083.56;;;14.19;69.98
34696;BME280;20918;51.138;17.370;2022-11-04T10:53:57;99083.95;;;14.06;70.36
34696;BME280;20918;51.138;17.370;2022-11-04T10:56:59;99085.97;;;13.95;70.05
34696;BME280;20918;51.138;17.370;2022-11-04T11:00:03;99090.84;;;13.82;69.91
34696;BME280;20918;51.138;17.370;2022-11-04T11:03:30;99086.50;;;13.72;70.06
34696;BME280;20918;51.138;17.370;2022-11-04T11:06:32;99079.78;;;13.63;70.11
34696;BME280;20918;51.138;17.370;2022-11-04T11:12:53;99072.06;;;13.41;70.25
34696;BME280;20918;51.138;17.370;2022-11-04T11:16:06;99073.91;;;13.34;70.44
34696;BME280;20918;51.138;17.370;2022-11-04T11:19:23;99073.14;;;13.27;70.60
34696;BME280;20918;51.138;17.370;2022-11-04T11:22:39;99077.42;;;13.35;71.03
34696;BME280;20918;51.138;17.370;2022-11-04T11:25:44;99071.70;;;13.54;71.18
34696;BME280;20918;51.138;17.370;2022-11-04T11:28:53;99067.57;;;14.03;71.17
34696;BME280;20918;51.138;17.370;2022-11-04T11:31:57;99064.80;;;14.48;70.68
34696;BME280;20918;51.138;17.370;2022-11-04T11:35:01;99053.78;;;14.78;69.76
34696;BME280;20918;51.138;17.370;2022-11-04T11:38:03;99054.96;;;14.83;69.47
34696;BME280;20918;51.138;17.370;2022-11-04T11:41:08;99054.96;;;14.83;68.28
34696;BME280;20918;51.138;17.370;2022-11-04T11:47:36;99050.77;;;14.59;68.63
34696;BME280;20918;51.138;17.370;2022-11-04T11:50:41;99044.31;;;14.67;68.94
34696;BME280;20918;51.138;17.370;2022-11-04T12:01:16;99057.72;;;14.19;68.67
34696;BME280;20918;51.138;17.370;2022-11-04T12:04:29;99053.66;;;14.10;68.84
34696;BME280;20918;51.138;17.370;2022-11-04T12:10:58;99057.77;;;13.97;68.93
34696;BME280;20918;51.138;17.370;2022-11-04T12:14:04;99041.91;;;14.02;69.39
34696;BME280;20918;51.138;17.370;2022-11-04T12:23:49;99057.56;;;14.55;68.99
34696;BME280;20918;51.138;17.370;2022-11-04T12:27:15;99058.79;;;14.68;68.63
34696;BME280;20918;51.138;17.370;2022-11-04T12:30:14;99071.98;;;14.72;68.69
34696;BME280;20918;51.138;17.370;2022-11-04T12:33:29;99076.08;;;14.75;68.51
34696;BME280;20918;51.138;17.370;2022-11-04T12:36:35;99075.77;;;14.65;68.00
34696;BME280;20918;51.138;17.370;2022-11-04T12:40:01;99075.14;;;14.53;67.83
34696;BME280;20918;51.138;17.370;2022-11-04T12:43:06;99071.64;;;14.37;67.98
34696;BME280;20918;51.138;17.370;2022-11-04T12:49:56;99074.36;;;14.15;68.06
34696;BME280;20918;51.138;17.370;2022-11-04T12:56:38;99064.41;;;13.81;68.13
34696;BME280;20918;51.138;17.370;2022-11-04T13:00:03;99067.36;;;13.66;68.30
34696;BME280;20918;51.138;17.370;2022-11-04T13:03:25;99072.02;;;13.55;68.57
34696;BME280;20918;51.138;17.370;2022-11-04T13:06:42;99077.36;;;13.48;68.65
34696;BME280;20918;51.138;17.370;2022-11-04T13:09:57;99066.02;;;13.43;68.81
34696;BME280;20918;51.138;17.370;2022-11-04T13:13:00;99068.36;;;13.42;68.86
34696;BME280;20918;51.138;17.370;2022-11-04T13:16:05;99074.73;;;13.41;68.96
34696;BME280;20918;51.138;17.370;2022-11-04T13:19:37;99076.16;;;13.44;69.15
34696;BME280;20918;51.138;17.370;2022-11-04T13:22:45;99077.69;;;13.42;69.11
34696;BME280;20918;51.138;17.370;2022-11-04T13:25:50;99074.92;;;13.40;69.16
34696;BME280;20918;51.138;17.370;2022-11-04T13:29:03;99086.81;;;13.37;69.25
34696;BME280;20918;51.138;17.370;2022-11-04T13:38:53;99084.70;;;13.30;69.40
34696;BME280;20918;51.138;17.370;2022-11-04T13:45:36;99082.75;;;13.28;69.70
34696;BME280;20918;51.138;17.370;2022-11-04T13:52:08;99087.27;;;13.28;69.91
34696;BME280;20918;51.138;17.370;2022-11-04T13:55:16;99085.00;;;13.24;69.96
34696;BME280;20918;51.138;17.370;2022-11-04T13:58:25;99082.85;;;13.24;70.19
34696;BME280;20918;51.138;17.370;2022-11-04T14:01:29;99081.52;;;13.24;70.26
34696;BME280;20918;51.138;17.370;2022-11-04T14:04:32;99076.61;;;13.21;70.31
34696;BME280;20918;51.138;17.370;2022-11-04T14:11:06;99079.91;;;13.03;70.23
34696;BME280;20918;51.138;17.370;2022-11-04T14:14:15;99071.03;;;12.93;70.34
34696;BME280;20918;51.138;17.370;2022-11-04T14:20:41;99068.39;;;12.87;70.53
34696;BME280;20918;51.138;17.370;2022-11-04T14:23:49;99075.53;;;12.86;70.72
34696;BME280;20918;51.138;17.370;2022-11-04T14:26:55;99081.59;;;12.84;70.76
34696;BME280;20918;51.138;17.370;2022-11-04T14:29:57;99078.84;;;12.82;70.81
34696;BME280;20918;51.138;17.370;2022-11-04T14:33:05;99086.72;;;12.79;70.73
34696;BME280;20918;51.138;17.370;2022-11-04T14:39:38;99098.19;;;12.60;71.16
34696;BME280;20918;51.138;17.370;2022-11-04T14:42:49;99100.64;;;12.48;71.35
34696;BME280;20918;51.138;17.370;2022-11-04T14:45:55;99101.34;;;12.46;71.52
34696;BME280;20918;51.138;17.370;2022-11-04T14:48:57;99102.87;;;12.44;71.66
34696;BME280;20918;51.138;17.370;2022-11-04T14:52:01;99095.41;;;12.37;71.74
34696;BME280;20918;51.138;17.370;2022-11-04T14:55:05;99094.89;;;12.31;71.94
34696;BME280;20918;51.138;17.370;2022-11-04T14:58:26;99091.61;;;12.29;71.95
34696;BME280;20918;51.138;17.370;2022-11-04T15:01:36;99092.09;;;12.22;72.11
34696;BME280;20918;51.138;17.370;2022-11-04T15:04:48;99091.28;;;12.15;72.31
34696;BME280;20918;51.138;17.370;2022-11-04T15:07:48;99092.69;;;12.10;72.46
34696;BME280;20918;51.138;17.370;2022-11-04T15:10:49;99095.56;;;12.09;72.57
34696;BME280;20918;51.138;17.370;2022-11-04T15:13:56;99098.52;;;12.03;72.67
34696;BME280;20918;51.138;17.370;2022-11-04T15:16:57;99103.61;;;11.98;72.77
34696;BME280;20918;51.138;17.370;2022-11-04T15:20:00;99107.48;;;11.89;72.94
34696;BME280;20918;51.138;17.370;2022-11-04T15:23:06;99105.89;;;11.84;73.12
34696;BME280;20918;51.138;17.370;2022-11-04T15:29:31;99098.61;;;11.75;73.47
34696;BME280;20918;51.138;17.370;2022-11-04T15:32:32;99097.98;;;11.73;73.66
34696;BME280;20918;51.138;17.370;2022-11-04T15:35:33;99099.92;;;11.69;73.77
34696;BME280;20918;51.138;17.370;2022-11-04T15:38:36;99093.98;;;11.66;73.89
34696;BME280;20918;51.138;17.370;2022-11-04T15:41:40;99097.15;;;11.66;74.10
34696;BME280;20918;51.138;17.370;2022-11-04T15:48:33;99102.02;;;11.62;74.41
34696;BME280;20918;51.138;17.370;2022-11-04T15:51:38;99109.17;;;11.62;74.64
34696;BME280;20918;51.138;17.370;2022-11-04T15:54:45;99106.11;;;11.58;74.75
34696;BME280;20918;51.138;17.370;2022-11-04T15:57:48;99108.34;;;11.55;74.94
34696;BME280;20918;51.138;17.370;2022-11-04T16:00:52;99107.89;;;11.51;75.08
34696;BME280;20918;51.138;17.370;2022-11-04T16:03:59;99099.72;;;11.46;75.20
34696;BME280;20918;51.138;17.370;2022-11-04T16:10:28;99102.94;;;11.35;75.61
34696;BME280;20918;51.138;17.370;2022-11-04T16:13:31;99101.44;;;11.26;75.74
34696;BME280;20918;51.138;17.370;2022-11-04T16:16:32;99099.38;;;11.21;76.05
34696;BME280;20918;51.138;17.370;2022-11-04T16:19:33;99102.80;;;11.15;76.20
34696;BME280;20918;51.138;17.370;2022-11-04T16:22:36;99101.14;;;11.07;76.41
34696;BME280;20918;51.138;17.370;2022-11-04T16:25:40;99097.55;;;11.04;76.73
34696;BME280;20918;51.138;17.370;2022-11-04T16:28:41;99102.37;;;10.94;76.94
34696;BME280;20918;51.138;17.370;2022-11-04T16:31:43;99099.67;;;10.87;77.22
34696;BME280;20918;51.138;17.370;2022-11-04T16:34:45;99091.98;;;10.82;77.44
34696;BME280;20918;51.138;17.370;2022-11-04T16:37:53;99089.20;;;10.79;77.78
34696;BME280;20918;51.138;17.370;2022-11-04T16:40:56;99096.35;;;10.79;77.79
34696;BME280;20918;51.138;17.370;2022-11-04T16:43:57;99112.15;;;10.76;77.84
34696;BME280;20918;51.138;17.370;2022-11-04T16:46:59;99111.81;;;10.75;78.01
34696;BME280;20918;51.138;17.370;2022-11-04T16:50:04;99105.91;;;10.73;78.14
34696;BME280;20918;51.138;17.370;2022-11-04T16:53:15;99091.57;;;10.67;78.35
34696;BME280;20918;51.138;17.370;2022-11-04T16:56:19;99085.20;;;10.62;78.59
34696;BME280;20918;51.138;17.370;2022-11-04T16:59:22;99089.62;;;10.54;78.75
34696;BME280;20918;51.138;17.370;2022-11-04T17:02:29;99093.98;;;10.51;79.07
34696;BME280;20918;51.138;17.370;2022-11-04T17:05:30;99094.16;;;10.50;79.26
34696;BME280;20918;51.138;17.370;2022-11-04T17:08:32;99093.94;;;10.45;79.40
34696;BME280;20918;51.138;17.370;2022-11-04T17:11:33;99092.91;;;10.46;79.65
34696;BME280;20918;51.138;17.370;2022-11-04T17:14:35;99088.25;;;10.48;79.84
34696;BME280;20918;51.138;17.370;2022-11-04T17:17:37;99091.59;;;10.46;79.90
34696;BME280;20918;51.138;17.370;2022-11-04T17:20:40;99083.33;;;10.45;79.94
34696;BME280;20918;51.138;17.370;2022-11-04T17:23:43;99087.61;;;10.46;80.09
34696;BME280;20918;51.138;17.370;2022-11-04T17:26:44;99090.77;;;10.45;80.16
34696;BME280;20918;51.138;17.370;2022-11-04T17:29:45;99095.27;;;10.45;80.28
34696;BME280;20918;51.138;17.370;2022-11-04T17:32:47;99085.59;;;10.48;80.36
34696;BME280;20918;51.138;17.370;2022-11-04T17:35:49;99091.77;;;10.44;80.41
34696;BME280;20918;51.138;17.370;2022-11-04T17:38:51;99079.09;;;10.40;80.58
34696;BME280;20918;51.138;17.370;2022-11-04T17:41:54;99072.85;;;10.37;80.75
34696;BME280;20918;51.138;17.370;2022-11-04T17:45:13;99070.38;;;10.35;80.87
34696;BME280;20918;51.138;17.370;2022-11-04T17:48:14;99050.16;;;10.23;81.08
34696;BME280;20918;51.138;17.370;2022-11-04T17:51:16;99069.56;;;10.35;81.27
34696;BME280;20918;51.138;17.370;2022-11-04T17:54:17;99066.09;;;10.34;81.05
34696;BME280;20918;51.138;17.370;2022-11-04T17:57:18;99068.23;;;10.35;81.37
34696;BME280;20918;51.138;17.370;2022-11-04T18:00:21;99062.94;;;10.35;81.51
34696;BME280;20918;51.138;17.370;2022-11-04T18:03:24;99059.59;;;10.37;81.66